createdAt,value
2019-06-20T00:01:37.350Z,98357.18
2019-06-20T00:04:04.381Z,98356.55
2019-06-20T00:06:31.208Z,98363.34
2019-06-20T00:08:57.953Z,98369.22
2019-06-20T00:11:24.648Z,98370.06
2019-06-20T00:13:51.372Z,98366.34
2019-06-20T00:16:18.074Z,98368.72
2019-06-20T00:18:45.123Z,98372.15
2019-06-20T00:21:12.179Z,98373.08
2019-06-20T00:23:38.895Z,98366.28
2019-06-20T00:26:05.600Z,98363.13
2019-06-20T00:28:32.367Z,98355.45
2019-06-20T00:30:59.421Z,98363.34
2019-06-20T00:33:26.160Z,98361.21
2019-06-20T00:35:52.863Z,98357.72
2019-06-20T00:38:19.553Z,98360.66
2019-06-20T00:40:46.235Z,98385.22
2019-06-20T00:43:17.413Z,98358.80
2019-06-20T00:45:41.555Z,98360.28
2019-06-20T00:48:08.406Z,98361.06
2019-06-20T00:50:35.322Z,98365.00
2019-06-20T00:53:02.019Z,98364.73
2019-06-20T00:55:28.771Z,98368.16
2019-06-20T00:57:55.489Z,98378.98
2019-06-20T01:00:22.427Z,98382.59
2019-06-20T01:02:51.715Z,98395.90
2019-06-20T01:05:18.556Z,98391.52
2019-06-20T01:07:45.266Z,98395.11
2019-06-20T01:10:12.029Z,98401.63
2019-06-20T01:12:38.734Z,98400.41
2019-06-20T01:15:05.707Z,98403.23
2019-06-20T01:17:32.781Z,98401.13
2019-06-20T01:20:00.595Z,98400.81
2019-06-20T01:22:27.622Z,98402.63
2019-06-20T01:24:54.332Z,98400.61
2019-06-20T01:27:21.353Z,98405.74
2019-06-20T01:29:48.196Z,98403.97
2019-06-20T01:32:14.933Z,98407.67
2019-06-20T01:34:41.690Z,98414.52
2019-06-20T01:37:08.549Z,98414.31
2019-06-20T01:39:35.302Z,98411.85
2019-06-20T01:42:02.012Z,98406.02
2019-06-20T01:44:28.731Z,98402.58
2019-06-20T01:46:55.438Z,98407.11
2019-06-20T01:49:22.159Z,98403.13
2019-06-20T01:51:49.170Z,98396.62
2019-06-20T01:54:15.868Z,98402.02
2019-06-20T01:56:42.560Z,98398.66
2019-06-20T01:59:09.567Z,98402.78
2019-06-20T02:01:36.267Z,98407.61
2019-06-20T02:04:03.010Z,98409.31
2019-06-20T02:06:29.655Z,98410.30
2019-06-20T02:08:56.381Z,98406.46
2019-06-20T02:11:23.067Z,98406.03
2019-06-20T02:14:03.558Z,98402.44
2019-06-20T02:16:18.386Z,98409.14
2019-06-20T02:18:45.097Z,98403.36
2019-06-20T02:21:11.801Z,98405.07
2019-06-20T02:23:38.542Z,98403.38
2019-06-20T02:26:05.252Z,98398.60
2019-06-20T02:28:31.961Z,98393.67
2019-06-20T02:30:58.663Z,98401.36
2019-06-20T02:33:25.371Z,98398.92
2019-06-20T02:35:52.082Z,98408.20
2019-06-20T02:38:19.163Z,98407.28
2019-06-20T02:40:45.869Z,98403.95
2019-06-20T02:43:12.889Z,98408.30
2019-06-20T02:45:40.187Z,98418.80
2019-06-20T02:48:06.901Z,98420.72
2019-06-20T02:50:33.585Z,98426.43
2019-06-20T02:53:00.307Z,98431.90
2019-06-20T02:55:27.016Z,98426.55
2019-06-20T02:57:53.710Z,98435.12
2019-06-20T03:00:34.029Z,98435.59
2019-06-20T03:03:00.788Z,98434.03
2019-06-20T03:05:27.441Z,98424.30
2019-06-20T03:07:54.129Z,98422.96
2019-06-20T03:10:20.865Z,98426.43
2019-06-20T03:12:47.533Z,98445.86
2019-06-20T03:15:14.537Z,98444.65
2019-06-20T03:17:41.237Z,98453.45
2019-06-20T03:20:10.070Z,98457.79
2019-06-20T03:22:36.719Z,98467.96
2019-06-20T03:25:03.909Z,98463.00
2019-06-20T03:27:31.066Z,98466.73
2019-06-20T03:29:57.777Z,98477.09
2019-06-20T03:32:27.431Z,98472.62
2019-06-20T03:34:54.222Z,98464.67
2019-06-20T03:37:20.925Z,98473.48
2019-06-20T03:39:47.627Z,98478.56
2019-06-20T03:42:14.313Z,98465.03
2019-06-20T03:44:40.983Z,98476.18
2019-06-20T03:47:07.803Z,98479.22
2019-06-20T03:49:34.471Z,98469.94
2019-06-20T03:52:01.436Z,98473.52
2019-06-20T03:54:28.146Z,98479.48
2019-06-20T03:56:54.826Z,98485.38
2019-06-20T03:59:21.526Z,98487.36
2019-06-20T04:01:49.206Z,98481.81
2019-06-20T04:04:16.086Z,98486.44
2019-06-20T04:06:43.464Z,98495.11
2019-06-20T04:09:10.181Z,98491.36
2019-06-20T04:11:37.228Z,98489.30
2019-06-20T04:14:03.936Z,98495.62
2019-06-20T04:16:30.645Z,98490.72
2019-06-20T04:18:57.361Z,98492.64
2019-06-20T04:21:24.049Z,98487.91
2019-06-20T04:23:50.734Z,98500.37
2019-06-20T04:26:17.681Z,98504.09
2019-06-20T04:28:44.381Z,98501.22
2019-06-20T04:31:11.090Z,98503.02
2019-06-20T04:33:37.780Z,98505.70
2019-06-20T04:36:04.878Z,98504.79
2019-06-20T04:38:31.886Z,98506.83
2019-06-20T04:40:58.616Z,98501.72
2019-06-20T04:43:25.294Z,98502.80
2019-06-20T04:46:04.119Z,98499.78
2019-06-20T04:48:30.819Z,98503.81
2019-06-20T04:50:57.511Z,98510.05
2019-06-20T04:53:24.212Z,98504.70
2019-06-20T04:55:50.894Z,98499.13
2019-06-20T04:58:17.614Z,98496.80
2019-06-20T05:00:44.332Z,98501.67
2019-06-20T05:03:11.082Z,98508.01
2019-06-20T05:05:37.766Z,98502.20
2019-06-20T05:08:04.561Z,98511.50
2019-06-20T05:10:31.270Z,98504.50
2019-06-20T05:12:57.976Z,98513.88
2019-06-20T05:15:24.685Z,98507.02
2019-06-20T05:17:51.767Z,98511.39
2019-06-20T05:20:18.474Z,98513.19
2019-06-20T05:22:45.493Z,98515.47
2019-06-20T05:25:14.412Z,98508.77
2019-06-20T05:27:41.128Z,98520.84
2019-06-20T05:30:09.013Z,98516.72
2019-06-20T05:32:35.735Z,98512.69
2019-06-20T05:35:03.183Z,98518.84
2019-06-20T05:37:30.135Z,98536.04
2019-06-20T05:39:56.899Z,98524.20
2019-06-20T05:42:23.629Z,98522.82
2019-06-20T05:44:50.347Z,98527.94
2019-06-20T05:47:17.042Z,98524.41
2019-06-20T05:49:43.877Z,98525.94
2019-06-20T05:52:10.582Z,98523.13
2019-06-20T05:54:37.610Z,98530.08
2019-06-20T05:57:04.763Z,98519.94
2019-06-20T05:59:31.935Z,98524.17
2019-06-20T06:01:58.674Z,98513.92
2019-06-20T06:04:26.406Z,98523.52
2019-06-20T06:06:53.228Z,98512.24
2019-06-20T06:09:19.973Z,98535.28
2019-06-20T06:11:46.680Z,98516.03
2019-06-20T06:14:13.888Z,98519.98
2019-06-20T06:16:44.232Z,98522.52
2019-06-20T06:19:11.680Z,98526.55
2019-06-20T06:21:41.407Z,98526.10
2019-06-20T06:24:11.388Z,98525.66
2019-06-20T06:26:38.113Z,98531.70
2019-06-20T06:29:04.906Z,98545.28
2019-06-20T06:31:31.593Z,98528.49
2019-06-20T06:33:58.276Z,98526.82
2019-06-20T06:36:24.988Z,98528.38
2019-06-20T06:38:51.671Z,98526.14
2019-06-20T06:41:18.762Z,98527.58
2019-06-20T06:43:45.464Z,98540.42
2019-06-20T06:46:12.159Z,98545.33
2019-06-20T06:48:38.861Z,98527.88
2019-06-20T06:51:05.595Z,98534.95
2019-06-20T06:53:32.318Z,98530.10
2019-06-20T06:55:59.018Z,98523.69
2019-06-20T06:58:26.112Z,98531.84
2019-06-20T07:00:52.841Z,98527.23
2019-06-20T07:03:19.923Z,98532.89
2019-06-20T07:05:46.641Z,98541.09
2019-06-20T07:08:13.706Z,98537.98
2019-06-20T07:10:40.788Z,98537.27
2019-06-20T07:13:07.543Z,98541.02
2019-06-20T07:15:34.373Z,98535.88
2019-06-20T07:18:01.070Z,98542.69
2019-06-20T07:20:27.842Z,98538.42
2019-06-20T07:22:54.657Z,98537.23
2019-06-20T07:25:21.974Z,98541.16
2019-06-20T07:27:48.691Z,98550.84
2019-06-20T07:30:15.424Z,98543.42
2019-06-20T07:32:42.112Z,98547.53
2019-06-20T07:35:08.904Z,98544.28
2019-06-20T07:37:35.914Z,98534.50
2019-06-20T07:40:03.814Z,98535.50
2019-06-20T07:42:30.562Z,98539.05
2019-06-20T07:44:57.237Z,98547.03
2019-06-20T07:47:23.948Z,98537.77
2019-06-20T07:49:50.647Z,98546.20
2019-06-20T07:52:17.338Z,98536.77
2019-06-20T07:54:44.332Z,98540.95
2019-06-20T07:57:11.450Z,98543.72
2019-06-20T07:59:38.268Z,98535.95
2019-06-20T08:02:04.989Z,98548.49
2019-06-20T08:04:31.801Z,98539.41
2019-06-20T08:06:58.624Z,98542.11
2019-06-20T08:09:43.662Z,98541.52
2019-06-20T08:11:54.070Z,98542.32
2019-06-20T08:14:20.846Z,98547.19
2019-06-20T08:16:49.069Z,98552.02
2019-06-20T08:19:15.811Z,98545.95
2019-06-20T08:21:44.210Z,98540.16
2019-06-20T08:24:11.139Z,98537.60
2019-06-20T08:26:38.334Z,98533.20
2019-06-20T08:29:18.680Z,98553.20
2019-06-20T08:31:34.141Z,98536.65
2019-06-20T08:34:02.163Z,98543.44
2019-06-20T08:36:29.158Z,98532.77
2019-06-20T08:38:56.930Z,98530.30
2019-06-20T08:41:24.276Z,98542.41
2019-06-20T08:43:53.568Z,98537.75
2019-06-20T08:46:20.332Z,98526.98
2019-06-20T08:48:47.650Z,98532.84
2019-06-20T08:51:14.818Z,98529.16
2019-06-20T08:53:41.761Z,98533.92
2019-06-20T08:56:08.585Z,98524.05
2019-06-20T08:58:35.297Z,98533.73
2019-06-20T09:03:30.664Z,98536.61
2019-06-20T09:05:58.241Z,98528.13
2019-06-20T09:08:25.299Z,98525.50
2019-06-20T09:10:54.104Z,98536.63
2019-06-20T09:13:21.088Z,98536.20
2019-06-20T09:15:47.837Z,98550.20
2019-06-20T09:18:14.577Z,98535.17
2019-06-20T09:20:41.702Z,98538.84
2019-06-20T09:23:08.464Z,98532.48
2019-06-20T09:25:35.253Z,98547.55
2019-06-20T09:28:02.686Z,98533.86
2019-06-20T09:30:29.501Z,98549.05
2019-06-20T09:32:56.265Z,98544.89
2019-06-20T09:35:22.994Z,98546.80
2019-06-20T09:37:51.744Z,98534.52
2019-06-20T09:40:19.907Z,98539.31
2019-06-20T09:42:46.669Z,98536.75
2019-06-20T09:45:16.983Z,98556.16
2019-06-20T09:47:43.734Z,98536.14
2019-06-20T09:50:10.617Z,98548.43
2019-06-20T09:52:37.347Z,98541.50
2019-06-20T09:55:04.199Z,98548.81
2019-06-20T09:57:30.933Z,98543.44
2019-06-20T10:00:07.687Z,98555.52
2019-06-20T10:02:27.032Z,98551.81
2019-06-20T10:04:54.486Z,98562.48
2019-06-20T10:07:21.334Z,98548.15
2019-06-20T10:09:49.829Z,98549.31
2019-06-20T10:12:16.644Z,98553.02
2019-06-20T10:14:43.349Z,98572.52
2019-06-20T10:17:10.038Z,98569.52
2019-06-20T10:19:36.746Z,98560.27
2019-06-20T10:22:03.561Z,98554.66
2019-06-20T10:24:30.377Z,98553.64
2019-06-20T10:26:58.001Z,98561.53
2019-06-20T10:29:24.884Z,98560.59
2019-06-20T10:31:53.175Z,98562.56
2019-06-20T10:34:19.949Z,98556.20
2019-06-20T10:36:48.041Z,98563.30
2019-06-20T10:39:14.901Z,98567.97
2019-06-20T10:41:41.995Z,98567.26
2019-06-20T10:44:08.683Z,98570.31
2019-06-20T10:46:35.415Z,98569.91
2019-06-20T10:49:02.541Z,98579.33
2019-06-20T10:51:49.615Z,98579.41
2019-06-20T10:54:16.585Z,98585.20
2019-06-20T10:56:45.843Z,98606.00
2019-06-20T10:59:11.979Z,98601.91
2019-06-20T11:01:39.829Z,98612.44
2019-06-20T11:04:07.364Z,98614.92
2019-06-20T11:06:34.146Z,98603.48
2019-06-20T11:09:01.298Z,98613.41
2019-06-20T11:11:28.042Z,98604.51
2019-06-20T11:13:56.669Z,98608.95
2019-06-20T11:16:23.671Z,98595.09
2019-06-20T11:18:50.453Z,98593.96
2019-06-20T11:21:17.236Z,98595.35
2019-06-20T11:23:45.221Z,98593.87
2019-06-20T11:26:12.029Z,98590.03
2019-06-20T11:28:39.296Z,98591.19
2019-06-20T11:31:06.817Z,98578.31
2019-06-20T11:33:36.485Z,98577.54
2019-06-20T11:36:03.492Z,98575.30
2019-06-20T11:38:30.223Z,98571.08
2019-06-20T11:40:57.082Z,98567.06
2019-06-20T11:43:23.831Z,98561.95
2019-06-20T11:45:50.560Z,98564.65
2019-06-20T11:48:17.316Z,98552.64
2019-06-20T11:50:44.511Z,98549.53
2019-06-20T11:53:11.304Z,98550.00
2019-06-20T11:55:38.011Z,98538.63
2019-06-20T11:58:04.737Z,98532.91
2019-06-20T12:00:34.136Z,98535.34
2019-06-20T12:03:01.273Z,98526.91
2019-06-20T12:05:28.027Z,98528.41
2019-06-20T12:07:54.892Z,98526.91
2019-06-20T12:10:21.942Z,98526.25
2019-06-20T12:12:59.562Z,98521.08
2019-06-20T12:15:26.647Z,98542.53
2019-06-20T12:17:53.523Z,98527.47
2019-06-20T12:20:20.270Z,98532.76
2019-06-20T12:22:46.969Z,98525.97
2019-06-20T12:25:15.856Z,98532.06
2019-06-20T12:27:43.115Z,98533.98
2019-06-20T12:30:10.163Z,98532.55
2019-06-20T12:32:36.915Z,98535.13
2019-06-20T12:35:03.745Z,98538.45
2019-06-20T12:37:30.825Z,98545.55
2019-06-20T12:39:57.531Z,98549.20
2019-06-20T12:42:27.503Z,98550.45
2019-06-20T12:44:54.299Z,98541.80
2019-06-20T12:47:22.938Z,98536.13
2019-06-20T12:49:50.701Z,98533.20
2019-06-20T12:52:17.953Z,98528.03
2019-06-20T12:54:44.941Z,98529.55
2019-06-20T12:57:12.058Z,98521.69
2019-06-20T12:59:40.719Z,98530.11
2019-06-20T13:02:09.952Z,98527.22
2019-06-20T13:04:38.290Z,98524.75
2019-06-20T13:07:05.425Z,98515.85
2019-06-20T13:09:32.306Z,98516.72
2019-06-20T13:11:59.481Z,98511.42
2019-06-20T13:14:26.219Z,98515.58
2019-06-20T13:16:53.171Z,98505.11
2019-06-20T13:19:20.019Z,98498.58
2019-06-20T13:21:48.599Z,98498.27
2019-06-20T13:24:15.440Z,98505.24
2019-06-20T13:26:42.490Z,98513.21
2019-06-20T13:29:09.257Z,98509.31
2019-06-20T13:31:51.849Z,98499.98
2019-06-20T13:34:05.300Z,98495.91
2019-06-20T13:36:32.043Z,98510.30
2019-06-20T13:38:58.807Z,98521.75
2019-06-20T13:41:25.851Z,98510.20
2019-06-20T13:43:52.646Z,98518.69
2019-06-20T13:46:19.736Z,98527.22
2019-06-20T13:48:47.506Z,98526.83
2019-06-20T13:51:14.388Z,98520.76
2019-06-20T13:53:42.617Z,98512.56
2019-06-20T13:56:09.497Z,98504.84
2019-06-20T13:58:37.177Z,98497.86
2019-06-20T14:01:03.907Z,98504.27
2019-06-20T14:03:30.678Z,98506.20
2019-06-20T14:05:57.461Z,98502.05
2019-06-20T14:08:24.994Z,98490.16
2019-06-20T14:10:52.271Z,98512.55
2019-06-20T14:15:59.465Z,98510.11
2019-06-20T14:18:27.675Z,98511.02
2019-06-20T14:20:55.262Z,98523.09
2019-06-20T14:23:22.124Z,98511.02
2019-06-20T14:25:49.172Z,98525.22
2019-06-20T14:28:15.992Z,98515.27
2019-06-20T14:30:44.469Z,98501.05
2019-06-20T14:33:11.532Z,98494.62
2019-06-20T14:35:38.231Z,98497.23
2019-06-20T14:38:05.297Z,98500.18
2019-06-20T14:40:32.030Z,98515.13
2019-06-20T14:42:58.737Z,98512.68
2019-06-20T14:45:28.299Z,98519.14
2019-06-20T14:47:55.329Z,98528.36
2019-06-20T14:50:22.543Z,98533.28
2019-06-20T14:52:50.015Z,98536.63
2019-06-20T14:55:18.299Z,98534.92
2019-06-20T14:57:47.007Z,98526.31
2019-06-20T15:00:16.019Z,98526.52
2019-06-20T15:02:45.838Z,98516.34
2019-06-20T15:05:13.706Z,98516.72
2019-06-20T15:07:40.418Z,98518.12
2019-06-20T15:10:07.191Z,98518.05
2019-06-20T15:12:36.791Z,98511.20
2019-06-20T15:15:03.787Z,98505.25
2019-06-20T15:17:30.495Z,98516.31
2019-06-20T15:19:57.497Z,98509.52
2019-06-20T15:22:24.208Z,98515.95
2019-06-20T15:24:53.407Z,98509.90
2019-06-20T15:27:19.664Z,98511.25
2019-06-20T15:29:47.700Z,98512.77
2019-06-20T15:32:15.036Z,98521.67
2019-06-20T15:34:42.143Z,98507.98
2019-06-20T15:37:08.820Z,98509.94
2019-06-20T15:39:35.565Z,98508.95
2019-06-20T15:42:02.343Z,98505.34
2019-06-20T15:44:29.393Z,98509.85
2019-06-20T15:46:56.091Z,98507.78
2019-06-20T15:49:25.835Z,98510.10
2019-06-20T15:51:52.583Z,98505.77
2019-06-20T15:54:19.744Z,98521.73
2019-06-20T15:56:46.447Z,98518.40
2019-06-20T15:59:13.209Z,98524.13
2019-06-20T16:01:39.929Z,98528.16
2019-06-20T16:04:06.671Z,98534.10
2019-06-20T16:06:34.159Z,98534.07
2019-06-20T16:09:00.897Z,98543.88
2019-06-20T16:11:27.599Z,98532.19
2019-06-20T16:13:54.327Z,98541.73
2019-06-20T16:16:21.322Z,98532.64
2019-06-20T16:18:48.320Z,98548.33
2019-06-20T16:21:15.392Z,98552.95
2019-06-20T16:23:42.218Z,98555.92
2019-06-20T16:26:08.966Z,98551.05
2019-06-20T16:28:35.665Z,98553.34
2019-06-20T16:31:10.084Z,98560.55
2019-06-20T16:33:32.223Z,98555.05
2019-06-20T16:35:58.993Z,98555.07
2019-06-20T16:38:25.697Z,98558.66
2019-06-20T16:40:52.440Z,98554.55
2019-06-20T16:43:19.188Z,98560.02
2019-06-20T16:45:45.893Z,98562.29
2019-06-20T16:48:12.645Z,98553.94
2019-06-20T16:50:39.554Z,98559.82
2019-06-20T16:53:06.355Z,98553.23
2019-06-20T16:55:33.123Z,98568.55
2019-06-20T16:57:59.800Z,98560.87
2019-06-20T17:00:26.527Z,98565.28
2019-06-20T17:02:53.241Z,98560.53
2019-06-20T17:05:20.055Z,98563.64
2019-06-20T17:07:49.944Z,98563.70
2019-06-20T17:10:18.580Z,98575.95
2019-06-20T17:12:45.416Z,98577.45
2019-06-20T17:15:12.362Z,98589.96
2019-06-20T17:17:39.134Z,98617.41
2019-06-20T17:20:05.896Z,98595.53
2019-06-20T17:22:32.987Z,98593.32
2019-06-20T17:24:59.697Z,98603.01
2019-06-20T17:27:26.378Z,98605.68
2019-06-20T17:29:53.150Z,98597.66
2019-06-20T17:32:19.984Z,98613.28
2019-06-20T17:34:46.839Z,98614.52
2019-06-20T17:37:13.556Z,98623.48
2019-06-20T17:39:40.285Z,98616.03
2019-06-20T17:42:08.958Z,98618.61
2019-06-20T17:44:37.142Z,98616.12
2019-06-20T17:47:03.843Z,98620.97
2019-06-20T17:49:33.386Z,98637.42
2019-06-20T17:52:00.123Z,98628.63
2019-06-20T17:54:26.847Z,98633.26
2019-06-20T17:56:54.098Z,98633.86
2019-06-20T17:59:22.850Z,98638.73
2019-06-20T18:01:49.543Z,98635.81
2019-06-20T18:04:16.483Z,98640.77
2019-06-20T18:06:43.246Z,98649.33
2019-06-20T18:09:10.085Z,98641.28
2019-06-20T18:11:37.004Z,98646.43
2019-06-20T18:14:04.008Z,98651.91
2019-06-20T18:16:30.759Z,98640.96
2019-06-20T18:18:57.795Z,98646.41
2019-06-20T18:21:24.632Z,98645.16
2019-06-20T18:23:51.413Z,98654.47
2019-06-20T18:26:18.166Z,98656.44
2019-06-20T18:28:44.911Z,98666.55
2019-06-20T18:31:11.665Z,98652.69
2019-06-20T18:33:38.405Z,98666.79
2019-06-20T18:36:05.182Z,98672.50
2019-06-20T18:38:31.852Z,98679.94
2019-06-20T18:40:58.563Z,98686.15
2019-06-20T18:43:25.470Z,98690.03
2019-06-20T18:45:52.158Z,98692.55
2019-06-20T18:48:18.922Z,98699.23
2019-06-20T18:50:47.097Z,98699.86
2019-06-20T18:53:14.524Z,98699.66
2019-06-20T18:55:41.242Z,98713.30
2019-06-20T18:58:08.027Z,98710.62
2019-06-20T19:00:35.339Z,98717.09
2019-06-20T19:03:02.425Z,98725.33
2019-06-20T19:05:29.698Z,98732.07
2019-06-20T19:07:57.274Z,98735.67
2019-06-20T19:10:24.033Z,98730.84
2019-06-20T19:12:50.735Z,98736.78
2019-06-20T19:15:17.467Z,98745.94
2019-06-20T19:17:44.167Z,98745.33
2019-06-20T19:20:11.141Z,98755.98
2019-06-20T19:22:37.855Z,98754.72
2019-06-20T19:25:04.841Z,98752.15
2019-06-20T19:27:45.019Z,98761.33
2019-06-20T19:30:00.258Z,98759.24
2019-06-20T19:32:27.156Z,98769.19
2019-06-20T19:35:02.081Z,98772.23
2019-06-20T19:37:22.529Z,98773.22
2019-06-20T19:39:49.885Z,98777.55
2019-06-20T19:42:20.664Z,98778.12
2019-06-20T19:44:47.663Z,98778.20
2019-06-20T19:47:17.368Z,98790.36
2019-06-20T19:49:44.086Z,98785.33
2019-06-20T19:52:10.896Z,98791.20
2019-06-20T19:54:37.647Z,98792.42
2019-06-20T19:57:04.327Z,98800.19
2019-06-20T19:59:31.060Z,98801.01
2019-06-20T20:01:57.795Z,98804.61
2019-06-20T20:04:26.444Z,98806.98
2019-06-20T20:06:53.912Z,98805.31
2019-06-20T20:09:20.668Z,98806.89
2019-06-20T20:11:47.489Z,98810.72
2019-06-20T20:14:14.254Z,98834.06
2019-06-20T20:16:43.991Z,98809.45
2019-06-20T20:19:12.915Z,98812.36
2019-06-20T20:21:39.627Z,98814.28
2019-06-20T20:24:07.113Z,98812.03
2019-06-20T20:26:34.167Z,98814.40
2019-06-20T20:29:01.000Z,98810.68
2019-06-20T20:31:27.883Z,98805.75
2019-06-20T20:33:54.659Z,98815.83
2019-06-20T20:36:25.198Z,98813.59
2019-06-20T20:38:50.346Z,98814.73
2019-06-20T20:41:17.808Z,98822.12
2019-06-20T20:43:44.546Z,98816.19
2019-06-20T20:46:11.595Z,98817.88
2019-06-20T20:48:38.309Z,98809.12
2019-06-20T20:51:05.052Z,98813.48
2019-06-20T20:53:31.860Z,98808.77
2019-06-20T20:56:02.304Z,98809.79
2019-06-20T20:58:29.778Z,98811.81
2019-06-20T21:01:16.436Z,98846.72
2019-06-20T21:03:43.235Z,98812.50
2019-06-20T21:06:09.950Z,98817.28
2019-06-20T21:08:36.692Z,98814.68
2019-06-20T21:11:03.447Z,98814.59
2019-06-20T21:13:30.164Z,98817.53
2019-06-20T21:15:57.302Z,98821.19
2019-06-20T21:18:24.372Z,98851.64
2019-06-20T21:20:51.064Z,98819.98
2019-06-20T21:23:17.796Z,98823.54
2019-06-20T21:25:44.521Z,98823.25
2019-06-20T21:28:11.257Z,98822.64
2019-06-20T21:30:37.959Z,98833.00
2019-06-20T21:33:04.714Z,98838.90
2019-06-20T21:35:31.476Z,98843.93
2019-06-20T21:37:58.252Z,98854.59
2019-06-20T21:40:25.108Z,98857.70
2019-06-20T21:42:53.870Z,98865.42
2019-06-20T21:45:20.589Z,98853.59
2019-06-20T21:47:47.318Z,98870.25
2019-06-20T21:50:14.086Z,98871.32
2019-06-20T21:52:40.797Z,98875.88
2019-06-20T21:55:07.519Z,98869.51
2019-06-20T21:57:34.238Z,98875.06
2019-06-20T22:00:01.415Z,98875.84
2019-06-20T22:02:28.679Z,98868.50
2019-06-20T22:04:55.466Z,98868.05
2019-06-20T22:07:22.237Z,98872.93
2019-06-20T22:09:49.067Z,98877.50
2019-06-20T22:12:15.779Z,98889.37
2019-06-20T22:14:42.520Z,98887.02
2019-06-20T22:17:09.278Z,98889.61
2019-06-20T22:19:36.117Z,98894.03
2019-06-20T22:22:05.572Z,98920.54
2019-06-20T22:24:34.014Z,98884.15
2019-06-20T22:27:00.718Z,98886.88
2019-06-20T22:29:27.775Z,98887.33
2019-06-20T22:31:54.510Z,98882.56
2019-06-20T22:34:21.253Z,98891.02
2019-06-20T22:36:48.925Z,98889.58
2019-06-20T22:39:15.658Z,98891.72
2019-06-20T22:41:42.806Z,98891.05
2019-06-20T22:44:09.521Z,98890.22
2019-06-20T22:46:36.268Z,98896.02
2019-06-20T22:49:03.064Z,98892.14
2019-06-20T22:51:29.925Z,98883.27
2019-06-20T22:53:57.092Z,98890.03
2019-06-20T22:56:23.810Z,98885.94
2019-06-20T22:58:50.526Z,98882.80
2019-06-20T23:01:17.298Z,98890.59
2019-06-20T23:03:44.131Z,98902.06
2019-06-20T23:06:10.957Z,98899.94
2019-06-20T23:08:38.032Z,98903.55
2019-06-20T23:11:04.769Z,98907.90
2019-06-20T23:13:31.504Z,98902.16
2019-06-20T23:15:58.253Z,98913.06
2019-06-20T23:18:24.993Z,98905.77
2019-06-20T23:21:04.262Z,98902.53
2019-06-20T23:23:20.653Z,98914.39
2019-06-20T23:25:50.150Z,98914.44
2019-06-20T23:28:16.868Z,98910.53
2019-06-20T23:30:43.612Z,98912.01
2019-06-20T23:33:10.424Z,98911.09
2019-06-20T23:35:37.168Z,98913.17
2019-06-20T23:38:03.901Z,98918.92
2019-06-20T23:40:30.677Z,98915.65
2019-06-20T23:42:57.380Z,98922.44
2019-06-20T23:45:24.184Z,98916.51
2019-06-20T23:47:51.369Z,98907.88
2019-06-20T23:50:18.094Z,98907.98
2019-06-20T23:52:47.901Z,98907.77
2019-06-20T23:55:14.670Z,98907.80
2019-06-20T23:57:41.363Z,98906.62
